createdAt,value
2022-12-07T00:00:48.116Z,94735.25
2022-12-07T00:03:14.621Z,94735.84
2022-12-07T00:05:41.148Z,94733.03
2022-12-07T00:08:07.712Z,94724.19
2022-12-07T00:10:34.333Z,94727.41
2022-12-07T00:13:01.211Z,94724.19
2022-12-07T00:15:27.668Z,94722.38
2022-12-07T00:17:55.620Z,94720.97
2022-12-07T00:20:22.087Z,94726.44
2022-12-07T00:22:48.581Z,94713.38
2022-12-07T00:25:15.147Z,94712.38
2022-12-07T00:27:41.611Z,94710.13
2022-12-07T00:30:08.528Z,94712.53
2022-12-07T00:32:35.119Z,94704.50
2022-12-07T00:35:03.079Z,94703.50
2022-12-07T00:37:29.741Z,94698.47
2022-12-07T00:39:56.341Z,94705.72
2022-12-07T00:42:22.824Z,94703.91
2022-12-07T00:44:49.318Z,94706.53
2022-12-07T00:47:15.794Z,94700.28
2022-12-07T00:49:42.294Z,94709.50
2022-12-07T00:52:10.237Z,94710.53
2022-12-07T00:54:36.699Z,94708.91
2022-12-07T00:57:03.232Z,94707.50
2022-12-07T00:59:29.786Z,94709.31
2022-12-07T01:01:56.447Z,94705.13
2022-12-07T01:04:22.954Z,94699.31
2022-12-07T01:06:49.581Z,94703.50
2022-12-07T01:09:17.664Z,94699.13
2022-12-07T01:11:44.139Z,94704.09
2022-12-07T01:14:10.654Z,94701.50
2022-12-07T01:16:37.268Z,94707.31
2022-12-07T01:19:05.679Z,94706.09
2022-12-07T01:21:36.924Z,94702.28
2022-12-07T01:24:03.843Z,94709.06
2022-12-07T01:26:31.723Z,94713.50
2022-12-07T01:29:00.000Z,94711.13
2022-12-07T01:31:27.253Z,94713.72
2022-12-07T01:33:54.601Z,94715.31
2022-12-07T01:36:22.151Z,94719.50
2022-12-07T01:38:49.887Z,94717.72
2022-12-07T01:41:16.498Z,94715.91
2022-12-07T01:43:57.869Z,94721.13
2022-12-07T01:46:25.800Z,94722.94
2022-12-07T01:48:52.369Z,94718.72
2022-12-07T01:51:19.046Z,94720.91
2022-12-07T01:53:46.538Z,94720.72
2022-12-07T01:56:17.087Z,94710.06
2022-12-07T01:58:43.637Z,94704.63
2022-12-07T02:01:10.253Z,94712.69
2022-12-07T02:03:40.142Z,94706.88
2022-12-07T02:06:08.001Z,94705.47
2022-12-07T02:08:34.492Z,94707.06
2022-12-07T02:11:01.700Z,94703.47
2022-12-07T02:13:31.142Z,94706.63
2022-12-07T02:16:06.033Z,94700.03
2022-12-07T02:18:39.458Z,94696.84
2022-12-07T02:21:09.938Z,94699.66
2022-12-07T02:23:41.870Z,94692.84
2022-12-07T02:26:32.494Z,94695.66
2022-12-07T02:29:11.060Z,94689.84
2022-12-07T02:31:38.497Z,94690.06
2022-12-07T02:34:07.939Z,94687.47
2022-12-07T02:36:38.950Z,94684.03
2022-12-07T02:39:09.462Z,94690.06
2022-12-07T02:41:38.958Z,94689.09
2022-12-07T02:44:08.922Z,94689.50
2022-12-07T02:46:37.989Z,94689.50
2022-12-07T02:49:05.451Z,94689.09
2022-12-07T02:51:32.390Z,94676.63
2022-12-07T02:53:58.886Z,94686.63
2022-12-07T02:56:27.887Z,94680.44
2022-12-07T02:59:03.280Z,94683.63
2022-12-07T03:01:34.862Z,94684.19
2022-12-07T03:04:06.268Z,94683.22
2022-12-07T03:06:37.110Z,94682.41
2022-12-07T03:09:06.219Z,94683.41
2022-12-07T03:11:38.195Z,94678.97
2022-12-07T03:14:12.192Z,94678.00
2022-12-07T03:16:42.760Z,94676.16
2022-12-07T03:19:12.088Z,94670.16
2022-12-07T03:21:40.455Z,94676.97
2022-12-07T03:24:09.681Z,94677.56
2022-12-07T03:26:38.358Z,94677.56
2022-12-07T03:29:08.762Z,94675.97
2022-12-07T03:31:37.528Z,94672.34
2022-12-07T03:34:08.249Z,94680.16
2022-12-07T03:36:37.400Z,94673.13
2022-12-07T03:39:08.439Z,94673.13
2022-12-07T03:41:40.809Z,94669.53
2022-12-07T03:44:10.412Z,94670.53
2022-12-07T03:46:43.065Z,94665.31
2022-12-07T03:49:14.152Z,94668.72
2022-12-07T03:51:45.795Z,94666.09
2022-12-07T03:54:15.387Z,94673.72
2022-12-07T03:56:43.655Z,94676.94
2022-12-07T03:59:10.624Z,94674.31
2022-12-07T04:01:37.437Z,94670.09
2022-12-07T04:04:04.091Z,94673.72
2022-12-07T04:06:32.302Z,94669.72
2022-12-07T04:08:58.785Z,94672.97
2022-12-07T04:11:25.309Z,94677.41
2022-12-07T04:14:10.579Z,94672.97
2022-12-07T04:16:42.677Z,94676.97
2022-12-07T04:19:10.954Z,94672.53
2022-12-07T04:21:38.846Z,94667.31
2022-12-07T04:24:05.617Z,94675.75
2022-12-07T04:26:32.236Z,94667.13
2022-12-07T04:29:02.346Z,94674.16
2022-12-07T04:31:31.529Z,94676.78
2022-12-07T04:33:58.091Z,94678.34
2022-12-07T04:36:24.777Z,94673.38
2022-12-07T04:38:53.752Z,94674.16
2022-12-07T04:41:20.214Z,94679.56
2022-12-07T04:43:47.577Z,94677.19
2022-12-07T04:46:14.122Z,94674.34
2022-12-07T04:48:40.682Z,94674.16
2022-12-07T04:51:07.551Z,94675.16
2022-12-07T04:53:34.013Z,94672.53
2022-12-07T04:56:02.106Z,94675.97
2022-12-07T04:58:28.561Z,94671.53
2022-12-07T05:00:55.896Z,94671.31
2022-12-07T05:03:22.383Z,94680.38
2022-12-07T05:05:48.907Z,94671.97
2022-12-07T05:08:15.528Z,94677.41
2022-12-07T05:10:42.056Z,94676.00
2022-12-07T05:13:10.094Z,94666.00
2022-12-07T05:15:36.592Z,94670.84
2022-12-07T05:18:04.291Z,94670.03
2022-12-07T05:20:30.808Z,94670.25
2022-12-07T05:22:59.413Z,94673.06
2022-12-07T05:25:26.410Z,94671.03
2022-12-07T05:27:52.924Z,94676.84
2022-12-07T05:30:20.746Z,94675.63
2022-12-07T05:32:47.267Z,94671.22
2022-12-07T05:35:13.767Z,94674.63
2022-12-07T05:37:40.240Z,94678.00
2022-12-07T05:40:07.118Z,94682.44
2022-12-07T05:42:33.624Z,94680.63
2022-12-07T05:45:00.112Z,94679.63
2022-12-07T05:47:27.972Z,94682.00
2022-12-07T05:49:54.527Z,94682.81
2022-12-07T05:52:21.059Z,94684.19
2022-12-07T05:54:47.558Z,94682.41
2022-12-07T05:57:14.155Z,94684.00
2022-12-07T05:59:40.786Z,94690.25
2022-12-07T06:02:08.661Z,94690.44
2022-12-07T06:04:37.923Z,94685.66
2022-12-07T06:07:04.777Z,94695.69
2022-12-07T06:09:31.811Z,94695.13
2022-12-07T06:12:17.252Z,94697.94
2022-12-07T06:14:44.185Z,94692.34
2022-12-07T06:17:10.895Z,94703.19
2022-12-07T06:19:39.099Z,94699.19
2022-12-07T06:22:05.958Z,94699.19
2022-12-07T06:24:33.095Z,94704.63
2022-12-07T06:26:59.614Z,94709.03
2022-12-07T06:29:26.341Z,94713.22
2022-12-07T06:31:53.049Z,94714.03
2022-12-07T06:34:20.445Z,94713.47
2022-12-07T06:36:52.696Z,94711.84
2022-12-07T06:39:19.565Z,94717.28
2022-12-07T06:41:46.201Z,94720.47
2022-12-07T06:44:12.712Z,94720.84
2022-12-07T06:46:39.416Z,94719.03
2022-12-07T06:49:06.278Z,94726.69
2022-12-07T06:51:33.026Z,94727.47
2022-12-07T06:54:01.213Z,94723.66
2022-12-07T06:56:27.721Z,94728.63
2022-12-07T06:58:54.288Z,94735.66
2022-12-07T07:01:20.888Z,94739.31
2022-12-07T07:03:47.560Z,94734.69
2022-12-07T07:06:14.390Z,94732.25
2022-12-07T07:08:41.105Z,94734.09
2022-12-07T07:11:09.689Z,94740.88
2022-12-07T07:13:36.219Z,94744.88
2022-12-07T07:16:02.833Z,94742.09
2022-12-07T07:18:29.930Z,94742.09
2022-12-07T07:20:56.398Z,94744.47
2022-12-07T07:23:22.966Z,94739.06
2022-12-07T07:25:49.634Z,94734.44
2022-12-07T07:28:17.862Z,94736.03
2022-12-07T07:30:44.633Z,94742.25
2022-12-07T07:33:15.753Z,94743.25
2022-12-07T07:35:42.542Z,94749.50
2022-12-07T07:38:09.373Z,94747.69
2022-12-07T07:40:36.212Z,94757.91
2022-12-07T07:43:02.740Z,94754.47
2022-12-07T07:45:31.051Z,94753.69
2022-12-07T07:47:57.564Z,94756.09
2022-12-07T07:50:24.131Z,94755.69
2022-12-07T07:52:50.809Z,94751.84
2022-12-07T07:55:17.362Z,94751.84
2022-12-07T07:57:46.217Z,94752.88
2022-12-07T08:00:17.356Z,94747.84
2022-12-07T08:02:45.605Z,94753.28
2022-12-07T08:05:12.996Z,94762.31
2022-12-07T08:07:39.828Z,94758.72
2022-12-07T08:10:07.230Z,94768.13
2022-12-07T08:12:36.546Z,94767.13
2022-12-07T08:15:03.125Z,94769.53
2022-12-07T08:17:29.944Z,94765.91
2022-12-07T08:19:57.824Z,94766.50
2022-12-07T08:22:24.502Z,94773.31
2022-12-07T08:24:50.999Z,94770.72
2022-12-07T08:27:17.473Z,94772.31
2022-12-07T08:29:44.132Z,94775.94
2022-12-07T08:32:10.616Z,94776.94
2022-12-07T08:34:37.989Z,94771.16
2022-12-07T08:37:06.134Z,94779.38
2022-12-07T08:39:33.163Z,94771.94
2022-12-07T08:41:59.938Z,94762.97
2022-12-07T08:44:26.580Z,94770.59
2022-12-07T08:46:54.874Z,94785.06
2022-12-07T08:49:23.975Z,94779.25
2022-12-07T08:51:50.533Z,94767.41
2022-12-07T08:54:19.538Z,94777.06
2022-12-07T08:56:47.358Z,94772.44
2022-12-07T08:59:14.895Z,94770.63
2022-12-07T09:01:41.474Z,94780.88
2022-12-07T09:04:08.142Z,94782.69
2022-12-07T09:06:34.923Z,94788.47
2022-12-07T09:09:02.438Z,94790.09
2022-12-07T09:11:30.776Z,94797.31
2022-12-07T09:13:57.480Z,94794.09
2022-12-07T09:16:24.232Z,94793.91
2022-12-07T09:18:51.058Z,94784.63
2022-12-07T09:21:17.597Z,94784.81
2022-12-07T09:23:44.363Z,94785.44
2022-12-07T09:26:11.347Z,94785.22
2022-12-07T09:28:39.662Z,94784.63
2022-12-07T09:31:24.522Z,94777.41
2022-12-07T09:33:54.263Z,94777.22
2022-12-07T09:36:20.906Z,94778.44
2022-12-07T09:38:47.378Z,94780.47
2022-12-07T09:41:13.978Z,94783.06
2022-12-07T09:43:42.528Z,94776.84
2022-12-07T09:46:13.111Z,94784.47
2022-12-07T09:48:40.384Z,94776.84
2022-12-07T09:51:18.026Z,94764.25
2022-12-07T09:53:50.086Z,94775.09
2022-12-07T09:56:18.054Z,94769.88
2022-12-07T09:58:47.238Z,94768.47
2022-12-07T10:01:15.531Z,94765.03
2022-12-07T10:03:45.724Z,94753.81
2022-12-07T10:06:13.603Z,94753.03
2022-12-07T10:08:42.288Z,94760.06
2022-12-07T10:11:12.050Z,94753.63
2022-12-07T10:13:39.561Z,94749.19
2022-12-07T10:16:28.873Z,94742.97
2022-12-07T10:18:55.479Z,94742.34
2022-12-07T10:21:24.804Z,94733.31
2022-12-07T10:24:02.222Z,94731.91
2022-12-07T10:26:30.688Z,94730.25
2022-12-07T10:28:59.364Z,94721.41
2022-12-07T10:31:27.659Z,94729.59
2022-12-07T10:33:55.174Z,94729.22
2022-12-07T10:36:23.423Z,94729.00
2022-12-07T10:38:51.588Z,94723.34
2022-12-07T10:41:18.131Z,94724.72
2022-12-07T10:43:47.598Z,94726.56
2022-12-07T10:46:38.573Z,94719.75
2022-12-07T10:49:13.954Z,94713.72
2022-12-07T10:51:46.232Z,94714.91
2022-12-07T10:54:19.423Z,94713.31
2022-12-07T10:56:53.267Z,94713.31
2022-12-07T10:59:31.127Z,94709.91
2022-12-07T11:02:09.587Z,94707.69
2022-12-07T11:04:41.208Z,94694.28
2022-12-07T11:07:11.871Z,94697.91
2022-12-07T11:12:46.881Z,94688.44
2022-12-07T11:15:18.194Z,94694.47
2022-12-07T11:17:49.830Z,94686.28
2022-12-07T11:20:24.971Z,94674.81
2022-12-07T11:22:55.989Z,94676.19
2022-12-07T11:25:28.948Z,94676.00
2022-12-07T11:28:03.577Z,94671.56
2022-12-07T11:30:34.242Z,94664.38
2022-12-07T11:33:09.199Z,94658.16
2022-12-07T11:35:39.291Z,94662.34
2022-12-07T11:38:10.961Z,94660.53
2022-12-07T11:40:39.404Z,94656.50
2022-12-07T11:43:08.100Z,94652.25
2022-12-07T11:45:36.086Z,94655.63
2022-12-07T11:48:05.591Z,94653.97
2022-12-07T11:50:36.954Z,94651.97
2022-12-07T11:53:06.604Z,94648.13
2022-12-07T11:55:40.585Z,94641.72
2022-12-07T11:58:14.475Z,94636.72
2022-12-07T12:00:42.204Z,94637.34
2022-12-07T12:03:12.831Z,94632.94
2022-12-07T12:05:39.944Z,94629.09
2022-12-07T12:11:06.296Z,94626.84
2022-12-07T12:16:51.319Z,94623.84
2022-12-07T12:19:24.467Z,94615.34
2022-12-07T12:21:58.072Z,94612.97
2022-12-07T12:24:26.208Z,94614.78
2022-12-07T12:26:56.126Z,94607.31
2022-12-07T12:29:27.755Z,94615.50
2022-12-07T12:32:07.239Z,94611.47
2022-12-07T12:34:41.277Z,94606.81
2022-12-07T12:37:29.473Z,94603.34
2022-12-07T12:40:14.724Z,94606.53
2022-12-07T12:42:44.833Z,94610.31
2022-12-07T12:45:20.129Z,94609.66
2022-12-07T12:48:07.283Z,94598.19
2022-12-07T12:50:35.984Z,94596.03
2022-12-07T12:53:17.365Z,94595.81
2022-12-07T12:56:07.081Z,94590.75
2022-12-07T12:58:37.944Z,94597.69
2022-12-07T13:01:23.292Z,94590.44
2022-12-07T13:03:53.989Z,94596.28
2022-12-07T13:06:34.614Z,94597.06
2022-12-07T13:09:01.295Z,94590.81
2022-12-07T13:11:31.633Z,94581.97
2022-12-07T13:14:13.697Z,94578.53
2022-12-07T13:16:41.498Z,94579.13
2022-12-07T13:19:26.970Z,94583.91
2022-12-07T13:21:54.880Z,94583.91
2022-12-07T13:24:21.498Z,94574.63
2022-12-07T13:26:49.163Z,94580.78
2022-12-07T13:29:16.689Z,94580.34
2022-12-07T13:31:44.489Z,94578.31
2022-12-07T13:34:30.240Z,94580.28
2022-12-07T13:37:01.338Z,94574.19
2022-12-07T13:39:28.322Z,94576.94
2022-12-07T13:41:56.196Z,94581.13
2022-12-07T13:44:23.317Z,94577.72
2022-12-07T13:46:53.391Z,94577.50
2022-12-07T13:49:24.799Z,94575.69
2022-12-07T13:51:51.692Z,94570.66
2022-12-07T13:54:19.919Z,94565.22
2022-12-07T13:56:48.701Z,94560.59
2022-12-07T13:59:17.269Z,94559.34
2022-12-07T14:01:46.899Z,94564.13
2022-12-07T14:04:34.654Z,94565.16
2022-12-07T14:07:02.707Z,94571.19
2022-12-07T14:09:31.383Z,94559.94
2022-12-07T14:11:58.384Z,94562.56
2022-12-07T14:14:30.434Z,94567.53
2022-12-07T14:17:01.243Z,94569.38
2022-12-07T14:19:48.735Z,94572.19
2022-12-07T14:22:21.185Z,94580.47
2022-12-07T14:24:49.796Z,94571.69
2022-12-07T14:27:18.782Z,94571.34
2022-12-07T14:29:45.285Z,94566.13
2022-12-07T14:32:21.243Z,94568.50
2022-12-07T14:34:54.467Z,94566.47
2022-12-07T14:37:20.925Z,94567.28
2022-12-07T14:39:49.281Z,94559.22
2022-12-07T14:42:15.868Z,94556.38
2022-12-07T14:44:42.702Z,94563.41
2022-12-07T14:49:57.379Z,94557.84
2022-12-07T14:55:21.378Z,94561.59
2022-12-07T14:57:47.879Z,94557.97
2022-12-07T15:00:15.350Z,94560.59
2022-12-07T15:02:42.087Z,94561.81
2022-12-07T15:05:12.724Z,94556.22
2022-12-07T15:07:42.326Z,94552.47
2022-12-07T15:10:17.051Z,94552.69
2022-12-07T15:12:47.327Z,94552.13
2022-12-07T15:15:14.125Z,94549.72
2022-12-07T15:17:40.738Z,94547.31
2022-12-07T15:20:10.529Z,94546.75
2022-12-07T15:22:38.735Z,94544.34
2022-12-07T15:25:06.881Z,94545.38
2022-12-07T15:27:33.458Z,94545.59
2022-12-07T15:30:01.628Z,94545.59
2022-12-07T15:32:28.185Z,94548.66
2022-12-07T15:34:54.844Z,94543.28
2022-12-07T15:37:21.811Z,94543.94
2022-12-07T15:39:48.322Z,94539.16
2022-12-07T15:42:14.840Z,94539.94
2022-12-07T15:45:00.384Z,94544.16
2022-12-07T15:47:28.697Z,94545.41
2022-12-07T15:49:57.871Z,94550.03
2022-12-07T15:52:24.536Z,94539.22
2022-12-07T15:54:51.063Z,94538.66
2022-12-07T15:57:20.796Z,94539.66
2022-12-07T15:59:50.335Z,94539.66
2022-12-07T16:02:16.852Z,94543.06
2022-12-07T16:04:45.061Z,94537.03
2022-12-07T16:07:12.512Z,94540.44
2022-12-07T16:09:39.008Z,94539.66
2022-12-07T16:12:05.930Z,94534.66
2022-12-07T16:14:34.142Z,94529.28
2022-12-07T16:17:00.683Z,94533.56
2022-12-07T16:19:27.205Z,94526.59
2022-12-07T16:21:55.386Z,94531.47
2022-12-07T16:24:21.843Z,94530.88
2022-12-07T16:26:50.376Z,94531.09
2022-12-07T16:29:17.778Z,94527.66
2022-12-07T16:31:44.359Z,94536.31
2022-12-07T16:34:11.011Z,94536.31
2022-12-07T16:37:02.990Z,94529.28
2022-12-07T16:39:25.727Z,94538.94
2022-12-07T16:41:53.744Z,94535.75
2022-12-07T16:44:20.362Z,94531.09
2022-12-07T16:46:47.057Z,94531.91
2022-12-07T16:49:14.128Z,94527.47
2022-12-07T16:51:41.506Z,94525.88
2022-12-07T16:54:09.548Z,94524.25
2022-12-07T16:56:37.764Z,94525.06
2022-12-07T16:59:04.434Z,94525.50
2022-12-07T17:01:31.807Z,94531.94
2022-12-07T17:04:00.288Z,94525.28
2022-12-07T17:06:28.554Z,94527.66
2022-12-07T17:08:55.410Z,94521.81
2022-12-07T17:11:23.018Z,94526.03
2022-12-07T17:14:10.082Z,94522.84
2022-12-07T17:16:37.016Z,94515.00
2022-12-07T17:19:04.945Z,94515.78
2022-12-07T17:21:31.576Z,94512.38
2022-12-07T17:23:59.220Z,94516.00
2022-12-07T17:26:30.643Z,94515.19
2022-12-07T17:29:04.147Z,94514.63
2022-12-07T17:31:31.136Z,94516.22
2022-12-07T17:33:57.697Z,94518.59
2022-12-07T17:36:25.335Z,94516.22
2022-12-07T17:38:52.297Z,94518.25
2022-12-07T17:41:38.392Z,94514.84
2022-12-07T17:44:07.713Z,94518.47
2022-12-07T17:46:34.398Z,94517.31
2022-12-07T17:49:01.768Z,94517.31
2022-12-07T17:51:47.125Z,94503.47
2022-12-07T17:54:13.606Z,94515.94
2022-12-07T17:56:40.255Z,94509.31
2022-12-07T17:59:09.261Z,94506.91
2022-12-07T18:01:35.992Z,94513.38
2022-12-07T18:04:02.575Z,94512.81
2022-12-07T18:06:29.141Z,94516.66
2022-12-07T18:08:55.729Z,94514.03
2022-12-07T18:11:22.315Z,94512.22
2022-12-07T18:13:48.818Z,94511.44
2022-12-07T18:16:18.689Z,94515.84
2022-12-07T18:18:49.163Z,94512.22
2022-12-07T18:21:20.237Z,94503.16
2022-12-07T18:23:47.624Z,94501.94
2022-12-07T18:26:14.884Z,94506.72
2022-12-07T18:28:41.787Z,94502.53
2022-12-07T18:31:16.233Z,94496.28
2022-12-07T18:33:46.378Z,94500.72
2022-12-07T18:36:13.044Z,94498.31
2022-12-07T18:38:39.631Z,94504.53
2022-12-07T18:41:07.391Z,94499.75
2022-12-07T18:43:33.960Z,94501.19
2022-12-07T18:46:00.499Z,94505.25
2022-12-07T18:48:27.161Z,94505.13
2022-12-07T18:51:00.847Z,94495.47
2022-12-07T18:53:27.375Z,94496.84
2022-12-07T18:56:00.535Z,94483.81
2022-12-07T18:58:27.052Z,94488.44
2022-12-07T19:00:55.364Z,94478.44
2022-12-07T19:03:21.923Z,94488.47
2022-12-07T19:05:48.489Z,94485.50
2022-12-07T19:08:16.448Z,94490.94
2022-12-07T19:10:43.041Z,94487.53
2022-12-07T19:13:09.669Z,94486.75
2022-12-07T19:15:36.309Z,94486.16
2022-12-07T19:18:02.865Z,94480.78
2022-12-07T19:20:29.386Z,94482.44
2022-12-07T19:22:56.002Z,94477.47
2022-12-07T19:25:23.929Z,94484.06
2022-12-07T19:27:50.482Z,94479.63
2022-12-07T19:30:17.160Z,94475.22
2022-12-07T19:32:43.809Z,94474.41
2022-12-07T19:35:10.687Z,94462.59
2022-12-07T19:37:38.050Z,94470.19
2022-12-07T19:40:05.258Z,94477.38
2022-12-07T19:42:35.648Z,94472.56
2022-12-07T19:45:03.036Z,94472.91
2022-12-07T19:47:29.764Z,94475.50
2022-12-07T19:49:56.271Z,94471.28
2022-12-07T19:52:23.008Z,94475.50
2022-12-07T19:54:49.602Z,94471.72
2022-12-07T19:57:17.746Z,94470.72
2022-12-07T19:59:46.688Z,94469.94
2022-12-07T20:02:14.216Z,94471.16
2022-12-07T20:04:40.818Z,94468.56
2022-12-07T20:07:07.515Z,94463.91
2022-12-07T20:09:34.248Z,94468.31
2022-12-07T20:12:19.449Z,94468.75
2022-12-07T20:14:47.422Z,94459.34
2022-12-07T20:17:14.030Z,94455.72
2022-12-07T20:19:40.711Z,94451.88
2022-12-07T20:22:07.739Z,94450.84
2022-12-07T20:24:36.044Z,94453.47
2022-12-07T20:27:03.814Z,94454.50
2022-12-07T20:29:30.876Z,94449.06
2022-12-07T20:31:58.777Z,94450.66
2022-12-07T20:34:26.451Z,94448.25
2022-12-07T20:36:53.364Z,94447.25
2022-12-07T20:39:19.939Z,94444.06
2022-12-07T20:42:04.981Z,94434.06
2022-12-07T20:44:31.633Z,94439.47
2022-12-07T20:46:59.513Z,94437.66
2022-12-07T20:49:26.118Z,94434.84
2022-12-07T20:51:52.650Z,94433.81
2022-12-07T20:54:19.213Z,94436.44
2022-12-07T20:56:45.793Z,94432.25
2022-12-07T20:59:13.497Z,94434.84
2022-12-07T21:01:40.379Z,94434.84
2022-12-07T21:04:08.606Z,94439.28
2022-12-07T21:06:35.133Z,94433.47
2022-12-07T21:09:01.753Z,94433.91
2022-12-07T21:11:29.612Z,94440.94
2022-12-07T21:13:56.376Z,94435.72
2022-12-07T21:16:23.859Z,94434.91
2022-12-07T21:18:50.941Z,94435.34
2022-12-07T21:21:19.858Z,94442.81
2022-12-07T21:23:46.746Z,94426.56
2022-12-07T21:26:15.606Z,94423.75
2022-12-07T21:28:42.189Z,94430.34
2022-12-07T21:31:13.254Z,94427.31
2022-12-07T21:33:40.663Z,94418.69
2022-12-07T21:36:08.307Z,94424.09
2022-12-07T21:38:36.497Z,94430.13
2022-12-07T21:41:10.965Z,94429.13
2022-12-07T21:43:37.689Z,94426.28
2022-12-07T21:46:04.334Z,94422.09
2022-12-07T21:48:30.986Z,94420.47
2022-12-07T21:51:03.286Z,94415.50
2022-12-07T21:53:29.933Z,94415.50
2022-12-07T21:55:57.865Z,94417.88
2022-12-07T21:58:24.396Z,94411.06
2022-12-07T22:00:50.951Z,94409.09
2022-12-07T22:03:17.558Z,94405.94
2022-12-07T22:05:44.206Z,94406.94
2022-12-07T22:08:10.811Z,94410.31
2022-12-07T22:10:37.366Z,94410.13
2022-12-07T22:13:05.477Z,94409.09
2022-12-07T22:15:31.975Z,94406.72
2022-12-07T22:17:58.469Z,94404.31
2022-12-07T22:20:25.037Z,94409.53
2022-12-07T22:22:51.582Z,94403.72
2022-12-07T22:25:18.109Z,94403.72
2022-12-07T22:27:44.846Z,94401.13
2022-12-07T22:30:13.007Z,94401.94
2022-12-07T22:32:48.227Z,94403.97
2022-12-07T22:35:15.541Z,94401.34
2022-12-07T22:37:42.038Z,94400.31
2022-12-07T22:40:08.977Z,94396.50
2022-12-07T22:42:35.497Z,94394.91
2022-12-07T22:45:02.239Z,94401.13
2022-12-07T22:47:30.500Z,94398.31
2022-12-07T22:49:57.316Z,94397.94
2022-12-07T22:52:23.904Z,94392.94
2022-12-07T22:54:50.418Z,94395.19
2022-12-07T22:57:17.188Z,94388.59
2022-12-07T22:59:43.762Z,94392.00
2022-12-07T23:02:10.377Z,94383.16
2022-12-07T23:04:38.342Z,94381.56
2022-12-07T23:07:04.891Z,94382.78
2022-12-07T23:09:31.375Z,94377.22
2022-12-07T23:12:16.624Z,94378.84
2022-12-07T23:14:43.108Z,94375.09
2022-12-07T23:17:09.720Z,94378.34
2022-12-07T23:19:36.283Z,94355.31
2022-12-07T23:22:04.190Z,94361.13
2022-12-07T23:24:30.784Z,94357.28
2022-12-07T23:26:57.392Z,94359.66
2022-12-07T23:29:24.047Z,94360.44
2022-12-07T23:31:50.774Z,94352.84
2022-12-07T23:34:17.322Z,94350.25
2022-12-07T23:36:43.841Z,94349.81
2022-12-07T23:39:11.997Z,94341.22
2022-12-07T23:41:39.093Z,94346.41
2022-12-07T23:44:05.829Z,94342.44
2022-12-07T23:46:33.225Z,94339.25
2022-12-07T23:49:00.759Z,94333.00
2022-12-07T23:51:27.327Z,94337.81
2022-12-07T23:53:54.517Z,94339.81
2022-12-07T23:56:23.199Z,94329.16
2022-12-07T23:58:50.579Z,94334.97
